Time;durP1;ratioP1;P1;durP2;ratioP2;P2;SDS_P1;SDS_P2;PMS_P1;PMS_P2;Temp;Humidity;BMP_temperature;BMP_pressure;BME280_temperature;BME280_humidity;BME280_pressure;Samples;Min_cycle;Max_cycle;Signal;HPM_P1;HPM_P2
2022/06/09 00:02:03;;;;;;;3.43;1.70;;;;;;;15.40;100.00;96173.00;5051574;28;20207;-49
2022/06/09 00:04:35;;;;;;;1.97;1.40;;;;;;;15.41;100.00;96165.81;5054110;28;20298;-50
2022/06/09 00:07:06;;;;;;;1.57;1.47;;;;;;;15.31;100.00;96157.25;5054887;28;20207;-50
2022/06/09 00:09:40;;;;;;;2.33;1.43;;;;;;;15.33;100.00;96166.75;5054810;28;20225;-49
2022/06/09 00:12:07;;;;;;;4.87;1.60;;;;;;;15.29;100.00;96162.78;5055087;28;20303;-50
2022/06/09 00:14:36;;;;;;;6.77;1.50;;;;;;;15.25;100.00;96160.66;5054342;28;20772;-50
2022/06/09 00:17:03;;;;;;;1.17;1.07;;;;;;;15.26;100.00;96168.50;5055232;28;20294;-50
2022/06/09 00:19:32;;;;;;;1.10;1.07;;;;;;;15.28;100.00;96165.63;5054887;28;20210;-50
2022/06/09 00:21:59;;;;;;;1.43;1.20;;;;;;;15.23;100.00;96166.16;5063855;28;20610;-50
2022/06/09 00:24:25;;;;;;;1.37;1.00;;;;;;;15.32;100.00;96175.75;5052217;28;20207;-50
2022/06/09 00:26:52;;;;;;;2.30;1.10;;;;;;;15.36;100.00;96174.38;5054950;28;20202;-54
2022/06/09 00:29:19;;;;;;;2.93;1.20;;;;;;;15.31;100.00;96176.75;5054861;28;20227;-50
2022/06/09 00:31:48;;;;;;;1.60;1.53;;;;;;;15.33;100.00;96179.25;5054683;28;20239;-50
2022/06/09 00:34:17;;;;;;;2.20;1.30;;;;;;;15.30;100.00;96187.59;5050608;28;20231;-50
2022/06/09 00:36:47;;;;;;;1.23;1.23;;;;;;;15.27;100.00;96195.94;5054859;28;20302;-50
2022/06/09 00:39:14;;;;;;;4.10;1.37;;;;;;;15.23;100.00;96192.81;5054926;28;20203;-50
2022/06/09 00:41:43;;;;;;;1.67;1.57;;;;;;;15.16;100.00;96196.41;5054770;28;20202;-49
2022/06/09 00:44:19;;;;;;;3.33;1.00;;;;;;;15.17;100.00;96208.69;5053821;28;20294;-50
2022/06/09 00:46:49;;;;;;;1.83;1.43;;;;;;;15.17;100.00;96209.53;5047152;28;20309;-50
2022/06/09 00:49:21;;;;;;;1.03;1.03;;;;;;;15.24;100.00;96210.44;5054351;28;20226;-50
2022/06/09 00:51:54;;;;;;;1.20;1.10;;;;;;;15.24;100.00;96218.44;5054059;28;20666;-50
2022/06/09 00:54:24;;;;;;;1.10;1.00;;;;;;;15.19;100.00;96212.03;5052705;28;20282;-49
2022/06/09 00:56:56;;;;;;;1.77;1.17;;;;;;;15.16;100.00;96221.19;5054522;28;20619;-51
2022/06/09 00:59:26;;;;;;;2.53;1.20;;;;;;;15.09;100.00;96219.44;5054684;28;20203;-51
2022/06/09 01:01:53;;;;;;;2.57;1.10;;;;;;;15.03;100.00;96218.31;5072797;28;20202;-51
2022/06/09 01:04:20;;;;;;;2.40;1.17;;;;;;;15.00;100.00;96223.19;5066111;28;20266;-50
2022/06/09 01:06:54;;;;;;;0.93;0.93;;;;;;;15.08;100.00;96223.13;5058482;28;20306;-50
2022/06/09 01:09:25;;;;;;;1.03;0.83;;;;;;;15.09;100.00;96230.09;5052892;28;20215;-50
2022/06/09 01:11:54;;;;;;;1.03;0.67;;;;;;;15.02;100.00;96231.84;5058481;28;20302;-50
2022/06/09 01:14:26;;;;;;;1.67;0.90;;;;;;;14.93;100.00;96233.72;5094696;28;20202;-51
2022/06/09 01:17:02;;;;;;;2.13;1.20;;;;;;;14.90;100.00;96232.25;5091996;28;20237;-50
2022/06/09 01:19:49;;;;;;;2.93;0.77;;;;;;;14.87;100.00;96239.78;5071079;28;20229;-50
2022/06/09 01:22:28;;;;;;;0.90;0.90;;;;;;;14.90;100.00;96234.91;5058663;28;20210;-51
2022/06/09 01:25:22;;;;;;;1.70;1.03;;;;;;;14.79;100.00;96238.00;5058242;28;20183;-49
2022/06/09 01:28:07;;;;;;;3.03;0.90;;;;;;;14.81;100.00;96228.00;5057835;28;20278;-49
2022/06/09 01:30:43;;;;;;;1.23;0.60;;;;;;;14.75;100.00;96228.72;5058195;28;20313;-50
2022/06/09 01:33:15;;;;;;;0.70;0.70;;;;;;;14.72;100.00;96230.91;5048484;28;20194;-50
2022/06/09 01:35:45;;;;;;;1.20;0.90;;;;;;;14.63;100.00;96230.13;5058418;28;20286;-49
2022/06/09 01:38:12;;;;;;;0.70;0.70;;;;;;;14.61;100.00;96229.50;5057590;28;20618;-49
2022/06/09 01:40:39;;;;;;;0.70;0.60;;;;;;;14.58;100.00;96229.84;5058296;28;20213;-50
2022/06/09 01:43:07;;;;;;;0.60;0.60;;;;;;;14.59;100.00;96222.72;5056866;28;20652;-50
2022/06/09 01:45:51;;;;;;;1.10;0.60;;;;;;;14.60;100.00;96233.16;5058200;28;20203;-50
2022/06/09 01:48:19;;;;;;;1.47;0.70;;;;;;;14.55;100.00;96224.06;5057784;28;20290;-49
2022/06/09 01:50:49;;;;;;;0.77;0.77;;;;;;;14.44;100.00;96228.78;5044903;28;20231;-50
2022/06/09 01:53:20;;;;;;;1.10;0.63;;;;;;;14.45;100.00;96234.94;5056749;28;20210;-50
2022/06/09 01:55:50;;;;;;;0.80;0.80;;;;;;;14.41;100.00;96236.31;5057835;28;20203;-49
2022/06/09 01:58:22;;;;;;;0.87;0.70;;;;;;;14.32;100.00;96240.81;5055818;28;20575;-49
2022/06/09 02:00:50;;;;;;;1.33;0.70;;;;;;;14.26;100.00;96249.50;5067308;28;20203;-50
2022/06/09 02:03:20;;;;;;;1.10;0.90;;;;;;;14.31;100.00;96248.97;5077192;28;20226;-49
2022/06/09 02:05:50;;;;;;;1.30;0.77;;;;;;;14.23;100.00;96249.00;5077701;28;20214;-49
2022/06/09 02:08:21;;;;;;;2.97;0.67;;;;;;;14.12;100.00;96247.56;5058234;28;20203;-49
2022/06/09 02:10:53;;;;;;;0.70;0.70;;;;;;;14.18;100.00;96254.00;5058551;28;20290;-50
2022/06/09 02:13:22;;;;;;;0.50;0.50;;;;;;;14.06;100.00;96253.59;5059228;28;20294;-49
2022/06/09 02:15:52;;;;;;;1.50;0.70;;;;;;;14.06;100.00;96268.72;5059531;28;20302;-49
2022/06/09 02:18:20;;;;;;;2.53;0.73;;;;;;;14.01;100.00;96265.75;5051659;28;20215;-50
2022/06/09 02:20:51;;;;;;;1.30;0.80;;;;;;;13.92;100.00;96265.75;5070434;28;20301;-49
2022/06/09 02:23:19;;;;;;;1.23;0.67;;;;;;;13.88;100.00;96272.47;5057442;28;20287;-49
2022/06/09 02:25:46;;;;;;;1.33;0.87;;;;;;;13.85;100.00;96283.41;5054752;28;20261;-50
2022/06/09 02:28:14;;;;;;;1.53;1.00;;;;;;;13.84;100.00;96276.47;5047901;28;20278;-50
2022/06/09 02:30:42;;;;;;;2.53;0.97;;;;;;;13.86;100.00;96278.91;5052797;28;20318;-49
2022/06/09 02:33:10;;;;;;;0.50;0.50;;;;;;;13.84;100.00;96280.94;5052319;28;20289;-50
2022/06/09 02:35:41;;;;;;;3.03;0.83;;;;;;;13.82;100.00;96286.41;5046082;28;20295;-50
2022/06/09 02:38:08;;;;;;;1.93;1.03;;;;;;;13.86;100.00;96282.41;5048395;28;20195;-49
2022/06/09 02:40:35;;;;;;;4.10;0.90;;;;;;;13.87;100.00;96284.06;5047919;28;20210;-50
2022/06/09 02:43:02;;;;;;;1.70;0.90;;;;;;;13.95;100.00;96281.41;5048731;28;20200;-49
2022/06/09 02:45:29;;;;;;;2.00;0.80;;;;;;;13.88;100.00;96287.56;5056573;28;20230;-49
2022/06/09 02:47:56;;;;;;;2.03;1.00;;;;;;;13.84;100.00;96287.09;5047794;28;20200;-49
2022/06/09 02:50:25;;;;;;;1.57;1.47;;;;;;;13.85;100.00;96293.22;5049271;28;20602;-49
2022/06/09 02:52:53;;;;;;;2.10;0.90;;;;;;;13.83;100.00;96296.06;5050401;28;20203;-49
2022/06/09 02:55:20;;;;;;;0.80;0.80;;;;;;;13.82;100.00;96288.25;5056403;28;20203;-49
2022/06/09 02:57:46;;;;;;;0.90;0.70;;;;;;;13.83;100.00;96290.72;5053721;28;20287;-49
2022/06/09 03:00:16;;;;;;;0.80;0.80;;;;;;;13.81;100.00;96292.75;5056169;28;20290;-49
2022/06/09 03:02:44;;;;;;;1.80;0.80;;;;;;;13.83;100.00;96296.06;5052995;28;20219;-49
2022/06/09 03:05:10;;;;;;;1.87;1.73;;;;;;;13.85;100.00;96290.56;5054716;28;20294;-49
2022/06/09 03:07:38;;;;;;;1.10;1.00;;;;;;;13.82;100.00;96293.56;5071924;28;20183;-49
2022/06/09 03:10:06;;;;;;;2.83;1.90;;;;;;;13.80;100.00;96300.88;5079924;28;20265;-50
2022/06/09 03:12:32;;;;;;;2.20;1.07;;;;;;;13.78;100.00;96303.69;5071615;28;20199;-49
2022/06/09 03:15:01;;;;;;;2.13;0.93;;;;;;;13.78;100.00;96313.53;5074683;28;20199;-49
2022/06/09 03:17:28;;;;;;;1.23;0.90;;;;;;;13.79;100.00;96316.00;5067123;28;20195;-49
2022/06/09 03:19:54;;;;;;;2.70;1.07;;;;;;;13.80;100.00;96312.34;5064632;28;20238;-50
2022/06/09 03:22:22;;;;;;;2.10;0.90;;;;;;;13.86;100.00;96327.59;5068850;28;20184;-50
2022/06/09 03:24:50;;;;;;;1.43;0.90;;;;;;;13.89;100.00;96321.94;5079534;28;20183;-49
2022/06/09 03:27:17;;;;;;;3.13;1.00;;;;;;;13.84;100.00;96324.28;5078588;28;20204;-49
2022/06/09 03:29:43;;;;;;;2.70;0.80;;;;;;;13.82;100.00;96326.28;5076167;28;20226;-49
2022/06/09 03:32:10;;;;;;;1.20;0.90;;;;;;;13.84;100.00;96332.28;5049042;28;20267;-49
2022/06/09 03:34:36;;;;;;;2.77;1.00;;;;;;;13.83;100.00;96337.75;5048623;28;20196;-49
2022/06/09 03:37:04;;;;;;;2.40;0.80;;;;;;;13.83;100.00;96337.75;5049681;28;20200;-49
2022/06/09 03:39:30;;;;;;;1.90;0.70;;;;;;;13.81;100.00;96350.38;5051892;28;20210;-50
2022/06/09 03:41:58;;;;;;;1.57;1.00;;;;;;;13.92;100.00;96350.84;5051691;28;20210;-49
2022/06/09 03:44:26;;;;;;;1.23;0.90;;;;;;;13.88;100.00;96362.00;5045709;28;20255;-49
2022/06/09 03:46:53;;;;;;;1.90;1.40;;;;;;;14.03;99.66;96356.81;5047172;28;20283;-49
2022/06/09 03:49:20;;;;;;;2.30;2.03;;;;;;;14.00;100.00;96359.78;5048358;28;20302;-50
2022/06/09 03:51:47;;;;;;;1.90;1.00;;;;;;;13.95;99.84;96360.31;5049083;28;20257;-50
2022/06/09 03:54:14;;;;;;;0.80;0.80;;;;;;;13.90;100.00;96359.97;5051322;28;20282;-49
2022/06/09 03:56:42;;;;;;;1.50;0.80;;;;;;;13.92;100.00;96363.31;5045352;28;20778;-49
2022/06/09 03:59:13;;;;;;;1.10;0.67;;;;;;;13.92;100.00;96364.13;5049133;28;20199;-49
2022/06/09 04:01:42;;;;;;;1.47;0.83;;;;;;;13.87;100.00;96366.47;5045380;28;20196;-49
2022/06/09 04:04:08;;;;;;;1.27;0.83;;;;;;;13.87;100.00;96371.78;5046322;28;20215;-50
2022/06/09 04:06:36;;;;;;;1.73;0.60;;;;;;;13.81;99.03;96372.47;5050061;28;20287;-49
2022/06/09 04:09:03;;;;;;;1.37;0.70;;;;;;;13.82;98.76;96366.16;5045468;28;20294;-50
2022/06/09 04:11:32;;;;;;;0.70;0.70;;;;;;;13.77;99.23;96372.97;5046606;28;20321;-49
2022/06/09 04:13:58;;;;;;;1.20;0.80;;;;;;;13.73;99.94;96377.81;5043941;28;20632;-49
2022/06/09 04:16:28;;;;;;;0.50;0.50;;;;;;;13.76;99.45;96389.91;5043151;28;20231;-48
2022/06/09 04:18:56;;;;;;;1.27;0.67;;;;;;;13.75;99.22;96381.09;5040829;28;20286;-50
2022/06/09 04:21:25;;;;;;;1.40;0.87;;;;;;;13.77;99.25;96380.94;5049248;28;20282;-49
2022/06/09 04:23:51;;;;;;;1.03;0.90;;;;;;;13.77;98.82;96376.47;5044639;28;20581;-50
2022/06/09 04:26:20;;;;;;;0.77;0.77;;;;;;;13.79;99.24;96390.41;5053381;28;20219;-49
2022/06/09 04:28:47;;;;;;;1.10;0.80;;;;;;;13.81;100.00;96400.88;5046724;28;20199;-50
2022/06/09 04:31:14;;;;;;;1.07;0.97;;;;;;;13.78;100.00;96388.75;5043048;28;20312;-49
2022/06/09 04:33:42;;;;;;;2.90;1.10;;;;;;;13.85;100.00;96389.72;5043821;28;20809;-51
2022/06/09 04:36:10;;;;;;;0.87;0.67;;;;;;;13.82;100.00;96387.41;5045313;28;20203;-50
2022/06/09 04:38:37;;;;;;;1.23;0.90;;;;;;;13.83;100.00;96398.88;5051616;28;20217;-51
2022/06/09 04:41:04;;;;;;;0.83;0.70;;;;;;;13.81;100.00;96398.22;5074098;28;20293;-51
2022/06/09 04:43:32;;;;;;;2.00;0.90;;;;;;;13.81;100.00;96398.22;5063156;28;20264;-51
2022/06/09 04:45:58;;;;;;;0.80;0.70;;;;;;;13.83;100.00;96407.69;5053863;28;20610;-51
2022/06/09 04:48:25;;;;;;;0.83;0.80;;;;;;;13.82;100.00;96403.34;5054093;28;20298;-50
2022/06/09 04:50:53;;;;;;;1.00;0.97;;;;;;;13.78;100.00;96404.69;5053975;28;20563;-50
2022/06/09 04:53:21;;;;;;;1.50;0.90;;;;;;;13.77;100.00;96413.69;5051990;28;20313;-50
2022/06/09 04:55:48;;;;;;;1.20;0.60;;;;;;;13.72;100.00;96405.38;5041981;28;20291;-50
2022/06/09 04:58:14;;;;;;;2.27;1.10;;;;;;;13.76;100.00;96419.16;5053784;28;20628;-50
2022/06/09 05:00:41;;;;;;;0.90;0.80;;;;;;;13.81;100.00;96417.66;5045603;28;20292;-50
2022/06/09 05:03:11;;;;;;;1.57;0.83;;;;;;;13.79;100.00;96427.63;5049815;28;20284;-50
2022/06/09 05:05:42;;;;;;;2.23;0.70;;;;;;;13.86;100.00;96423.28;5044368;28;20199;-50
2022/06/09 05:08:11;;;;;;;1.17;1.00;;;;;;;13.88;100.00;96437.25;5047335;28;20695;-50
2022/06/09 05:10:38;;;;;;;1.00;0.70;;;;;;;13.90;100.00;96437.91;5044638;28;20599;-49
2022/06/09 05:13:06;;;;;;;1.13;0.60;;;;;;;13.93;100.00;96445.53;5054046;28;20293;-50
2022/06/09 05:15:33;;;;;;;1.17;0.87;;;;;;;13.94;100.00;96441.06;5043094;28;20204;-49
2022/06/09 05:18:00;;;;;;;2.27;1.00;;;;;;;13.90;100.00;96448.53;5051604;28;20879;-50
2022/06/09 05:20:28;;;;;;;1.80;0.97;;;;;;;13.96;100.00;96449.69;5053469;28;20286;-50
2022/06/09 05:22:55;;;;;;;0.70;0.70;;;;;;;13.91;100.00;96452.88;5040561;28;20682;-51
2022/06/09 05:25:25;;;;;;;1.27;0.83;;;;;;;13.95;100.00;96464.00;5049383;28;20242;-50
2022/06/09 05:27:53;;;;;;;0.60;0.60;;;;;;;13.98;100.00;96465.47;5040947;28;20570;-50
2022/06/09 05:30:23;;;;;;;0.70;0.70;;;;;;;13.98;100.00;96468.13;5040390;28;20660;-49
2022/06/09 05:32:50;;;;;;;1.93;1.00;;;;;;;13.99;100.00;96467.97;5046716;28;20282;-50
2022/06/09 05:35:19;;;;;;;1.27;1.03;;;;;;;14.06;100.00;96473.44;5047159;28;20285;-51
2022/06/09 05:46:04;;;;;;;0.80;0.80;;;;;;;14.30;100.00;96498.16;5044239;28;20528;-49
2022/06/09 05:48:31;;;;;;;2.47;1.07;;;;;;;14.22;100.00;96494.69;5047577;28;20207;-50
2022/06/09 05:50:59;;;;;;;1.67;1.33;;;;;;;14.25;100.00;96500.50;5047198;28;20273;-50
2022/06/09 05:53:26;;;;;;;1.63;0.73;;;;;;;14.27;100.00;96503.84;5057551;28;20295;-49
2022/06/09 05:55:54;;;;;;;2.20;1.10;;;;;;;14.23;100.00;96509.66;5047267;28;20200;-50
2022/06/09 05:58:20;;;;;;;1.20;0.87;;;;;;;14.24;100.00;96508.66;5050856;28;20207;-50
2022/06/09 06:00:47;;;;;;;1.07;0.83;;;;;;;14.25;100.00;96502.31;5049787;28;20290;-49
2022/06/09 06:03:14;;;;;;;2.10;0.90;;;;;;;14.18;100.00;96517.28;5056093;28;20574;-50
2022/06/09 06:08:27;;;;;;;1.50;1.40;;;;;;;14.17;100.00;96516.47;5044948;28;20197;-51
2022/06/09 06:10:56;;;;;;;2.07;1.10;;;;;;;14.19;100.00;96527.78;5044281;28;20294;-50
2022/06/09 06:13:24;;;;;;;3.43;0.80;;;;;;;14.22;99.70;96523.94;5057552;28;20531;-50
2022/06/09 06:15:51;;;;;;;1.37;1.10;;;;;;;14.23;100.00;96522.94;5055577;28;20297;-50
2022/06/09 06:18:18;;;;;;;1.67;0.93;;;;;;;14.22;100.00;96523.94;5045713;28;20290;-50
2022/06/09 06:20:47;;;;;;;1.53;1.00;;;;;;;14.32;100.00;96528.09;5044136;28;20592;-50
2022/06/09 06:23:14;;;;;;;2.73;1.17;;;;;;;14.46;100.00;96526.59;5057336;28;20542;-49
2022/06/09 06:25:41;;;;;;;1.40;0.87;;;;;;;14.64;100.00;96524.53;5054305;28;20535;-49
2022/06/09 06:28:09;;;;;;;1.40;1.30;;;;;;;14.78;100.00;96531.81;5048683;28;20214;-50
2022/06/09 06:30:36;;;;;;;2.47;1.00;;;;;;;14.91;98.00;96529.44;5050171;28;20294;-50
2022/06/09 06:33:02;;;;;;;2.40;1.00;;;;;;;14.99;95.79;96523.25;5046061;28;20605;-50
2022/06/09 06:35:29;;;;;;;1.83;1.10;;;;;;;15.35;95.30;96528.91;5043619;28;20294;-49
2022/06/09 06:37:55;;;;;;;1.97;0.90;;;;;;;15.63;94.90;96538.09;5047917;28;20290;-50
2022/06/09 06:40:22;;;;;;;1.10;1.00;;;;;;;16.33;94.04;96537.88;5050322;28;20714;-50
2022/06/09 06:42:49;;;;;;;3.60;1.13;;;;;;;16.90;89.47;96528.25;5046246;28;20214;-50
2022/06/09 06:45:17;;;;;;;1.83;0.98;;;;;;;17.49;87.28;96522.00;5043047;28;20322;-49
2022/06/09 06:47:44;;;;;;;0.95;0.90;;;;;;;18.04;82.77;96518.69;5047458;28;20286;-49
2022/06/09 06:50:12;;;;;;;1.13;0.88;;;;;;;18.46;76.76;96523.16;5052781;28;20290;-49
2022/06/09 06:52:39;;;;;;;2.92;1.20;;;;;;;18.74;79.26;96524.81;5056957;28;20207;-50
2022/06/09 06:55:07;;;;;;;1.67;1.00;;;;;;;19.08;74.28;96520.47;5043476;28;20293;-49
2022/06/09 06:57:34;;;;;;;1.52;0.95;;;;;;;19.33;75.72;96529.66;5056710;28;20238;-49
2022/06/09 07:00:01;;;;;;;1.58;1.08;;;;;;;19.54;74.60;96532.25;5043025;28;20207;-50
2022/06/09 07:02:29;;;;;;;0.65;0.65;;;;;;;19.94;70.62;96522.44;5056153;28;20286;-50
2022/06/09 07:04:57;;;;;;;1.02;0.85;;;;;;;20.15;68.42;96530.31;5052820;28;20294;-50
2022/06/09 07:07:24;;;;;;;1.08;0.73;;;;;;;20.28;67.11;96529.53;5047818;28;20203;-49
2022/06/09 07:09:51;;;;;;;3.38;0.80;;;;;;;20.19;69.38;96525.38;5051678;28;20243;-49
2022/06/09 07:12:19;;;;;;;2.03;0.60;;;;;;;20.74;66.79;96524.94;5048287;28;20314;-49
2022/06/09 07:14:46;;;;;;;2.00;0.98;;;;;;;20.96;64.43;96532.78;5043484;28;20286;-48
2022/06/09 07:17:20;;;;;;;1.33;1.00;;;;;;;20.56;67.89;96532.81;5044385;28;20294;-49
2022/06/09 07:19:48;;;;;;;2.55;0.90;;;;;;;20.15;65.22;96534.84;5049596;28;20225;-49
2022/06/09 07:22:15;;;;;;;1.33;0.77;;;;;;;19.92;66.30;96534.41;5050541;28;20290;-49
2022/06/09 07:24:42;;;;;;;0.93;0.75;;;;;;;20.16;64.31;96536.50;5053613;28;20227;-49
2022/06/09 07:27:12;;;;;;;2.38;1.17;;;;;;;20.30;66.93;96538.19;5067131;28;20207;-49
2022/06/09 07:29:39;;;;;;;1.38;1.08;;;;;;;20.49;62.97;96533.84;5067242;28;20195;-49
2022/06/09 07:32:08;;;;;;;1.75;0.90;;;;;;;20.82;65.57;96543.56;5058313;28;20322;-49
2022/06/09 07:34:37;;;;;;;1.02;0.70;;;;;;;20.77;62.82;96558.63;5048274;28;20286;-49
2022/06/09 07:37:07;;;;;;;1.30;0.88;;;;;;;21.05;59.52;96544.94;5049596;28;20206;-49
2022/06/09 07:39:37;;;;;;;1.20;0.57;;;;;;;20.77;59.05;96539.81;5044231;28;20603;-49
2022/06/09 07:42:05;;;;;;;2.13;0.50;;;;;;;21.27;60.58;96541.81;5040238;28;20195;-49
2022/06/09 07:44:31;;;;;;;1.05;0.70;;;;;;;21.62;60.01;96534.22;5045802;28;20329;-49
2022/06/09 07:47:01;;;;;;;2.55;0.93;;;;;;;21.72;58.21;96541.81;5041974;28;20295;-49
2022/06/09 07:49:27;;;;;;;2.00;0.77;;;;;;;21.53;57.77;96534.69;5047616;28;20199;-51
2022/06/09 07:51:54;;;;;;;1.42;0.80;;;;;;;21.04;54.37;96540.63;5051787;28;20226;-49
2022/06/09 07:54:26;;;;;;;1.92;0.90;;;;;;;20.50;55.04;96536.34;5056027;28;20211;-49
2022/06/09 07:56:53;;;;;;;1.67;0.70;;;;;;;20.57;57.77;96533.66;5051610;28;20234;-49
2022/06/09 07:59:19;;;;;;;1.80;0.88;;;;;;;20.53;59.59;96532.41;5046615;28;20234;-48
2022/06/09 08:01:46;;;;;;;1.55;0.85;;;;;;;20.60;59.92;96535.91;5042511;28;20195;-49
2022/06/09 08:04:15;;;;;;;3.28;0.88;;;;;;;20.77;56.69;96540.66;5055567;28;20218;-48
2022/06/09 08:06:41;;;;;;;3.28;0.80;;;;;;;20.62;56.06;96531.97;5042135;28;20211;-48
2022/06/09 08:09:09;;;;;;;1.98;0.63;;;;;;;20.16;55.43;96533.81;5044028;28;20294;-49
2022/06/09 08:11:38;;;;;;;1.80;0.70;;;;;;;19.85;58.16;96551.31;5053340;28;20227;-48
2022/06/09 08:14:06;;;;;;;1.85;1.02;;;;;;;19.47;57.13;96535.94;5042150;28;20204;-48
2022/06/09 08:16:33;;;;;;;5.07;1.05;;;;;;;19.17;59.41;96535.34;5054831;28;20293;-48
2022/06/09 08:19:00;;;;;;;3.10;0.93;;;;;;;18.91;64.08;96540.59;5068610;28;20223;-49
2022/06/09 08:21:32;;;;;;;1.13;0.70;;;;;;;19.04;62.69;96529.94;5074429;28;20210;-49
2022/06/09 08:24:00;;;;;;;1.52;0.63;;;;;;;19.43;62.48;96546.25;5071934;28;20199;-49
2022/06/09 08:26:29;;;;;;;2.08;0.73;;;;;;;19.72;59.62;96543.25;5056529;28;20199;-49
2022/06/09 08:28:57;;;;;;;1.77;0.73;;;;;;;20.22;63.14;96541.06;5040856;28;20298;-48
2022/06/09 08:31:24;;;;;;;1.67;0.88;;;;;;;20.54;57.21;96528.69;5046196;28;20224;-49
2022/06/09 08:33:52;;;;;;;1.48;0.77;;;;;;;20.60;58.48;96542.13;5048287;28;20213;-50
2022/06/09 08:36:18;;;;;;;1.27;0.52;;;;;;;20.31;57.61;96545.22;5043774;28;20213;-49
2022/06/09 08:38:46;;;;;;;2.63;0.77;;;;;;;19.90;59.73;96542.66;5041516;28;20231;-49
2022/06/09 08:41:27;;;;;;;3.22;0.90;;;;;;;19.53;61.91;96546.69;5055144;28;20199;-49
2022/06/09 08:44:03;;;;;;;1.85;0.90;;;;;;;19.30;56.63;96540.78;5049891;28;20249;-49
2022/06/09 08:46:40;;;;;;;2.70;1.83;;;;;;;18.78;67.43;96547.50;5047763;28;20194;-49
2022/06/09 08:49:20;;;;;;;3.05;1.42;;;;;;;18.42;68.27;96550.31;5050158;28;20257;-49
2022/06/09 08:51:49;;;;;;;3.15;1.10;;;;;;;18.33;67.28;96558.69;5057251;28;20301;-49
2022/06/09 08:54:22;;;;;;;1.77;0.82;;;;;;;18.30;65.26;96561.75;5043618;28;20294;-49
2022/06/09 08:56:51;;;;;;;4.97;1.50;;;;;;;18.01;66.52;96559.19;5041379;28;20291;-49
2022/06/09 08:59:22;;;;;;;3.33;2.10;;;;;;;17.82;68.80;96563.31;5044199;28;20199;-48
2022/06/09 09:01:50;;;;;;;2.30;1.02;;;;;;;18.47;64.33;96570.31;5051589;28;20195;-48
2022/06/09 09:04:22;;;;;;;3.35;0.98;;;;;;;18.77;62.22;96571.84;5042816;28;20658;-49
2022/06/09 09:06:56;;;;;;;4.30;1.20;;;;;;;18.81;62.81;96560.50;5053088;28;20227;-50
2022/06/09 09:09:25;;;;;;;4.50;1.23;;;;;;;18.67;63.64;96560.63;5041926;28;20318;-49
2022/06/09 09:12:01;;;;;;;3.22;1.10;;;;;;;18.51;62.79;96561.75;5041898;28;20223;-49
2022/06/09 09:14:30;;;;;;;1.98;1.15;;;;;;;18.37;61.07;96570.66;5041317;28;20668;-49
2022/06/09 09:17:01;;;;;;;1.77;0.85;;;;;;;18.24;63.82;96567.88;5045779;28;20218;-48
2022/06/09 09:19:42;;;;;;;3.85;1.15;;;;;;;17.85;72.47;96581.69;5052621;28;20289;-49
2022/06/09 09:22:13;;;;;;;2.90;1.30;;;;;;;17.63;72.71;96578.16;5041666;28;20203;-48
2022/06/09 09:24:46;;;;;;;3.63;1.35;;;;;;;17.54;70.40;96581.91;5045090;28;20287;-48
2022/06/09 09:27:21;;;;;;;5.20;1.20;;;;;;;17.63;65.99;96578.16;5057704;28;20291;-48
2022/06/09 09:29:57;;;;;;;2.67;1.48;;;;;;;18.18;70.61;96582.00;5047330;28;20195;-49
2022/06/09 09:32:27;;;;;;;2.20;1.00;;;;;;;18.46;69.11;96580.19;5044648;28;20689;-48
2022/06/09 09:34:54;;;;;;;4.63;1.30;;;;;;;18.62;70.81;96579.97;5048191;28;20290;-48
2022/06/09 09:37:27;;;;;;;2.20;1.13;;;;;;;18.82;67.09;96570.22;5056161;28;20293;-48
2022/06/09 09:39:59;;;;;;;0.93;0.80;;;;;;;19.34;65.64;96574.22;5058867;28;20287;-49
2022/06/09 09:42:28;;;;;;;4.72;1.13;;;;;;;19.69;57.24;96575.84;5044899;28;20207;-50
2022/06/09 09:45:06;;;;;;;2.13;0.95;;;;;;;19.71;62.25;96581.00;5057940;28;20649;-49
2022/06/09 09:47:33;;;;;;;4.18;1.42;;;;;;;20.40;62.68;96578.91;5046258;28;20297;-49
2022/06/09 09:50:07;;;;;;;2.85;1.30;;;;;;;20.73;59.70;96577.03;5057224;28;20298;-48
2022/06/09 09:52:41;;;;;;;1.83;1.10;;;;;;;20.80;58.53;96574.34;5047042;28;20294;-49
2022/06/09 09:55:27;;;;;;;2.10;1.05;;;;;;;20.91;55.10;96592.53;5044647;28;20627;-50
2022/06/09 09:58:25;;;;;;;2.08;1.05;;;;;;;20.40;53.64;96592.34;5044539;28;20278;-49
2022/06/09 10:00:58;;;;;;;3.28;1.20;;;;;;;20.37;53.23;96591.94;5006603;28;20601;-49
2022/06/09 10:09:14;;;;;;;2.65;0.93;;;;;;;19.64;51.95;96602.44;5046474;28;20195;-49
2022/06/09 10:11:58;;;;;;;3.65;1.30;;;;;;;19.65;53.97;96596.06;5051406;28;20215;-49
2022/06/09 10:14:49;;;;;;;3.60;1.73;;;;;;;19.63;56.89;96595.41;5052379;28;20234;-48
2022/06/09 10:17:30;;;;;;;3.90;1.13;;;;;;;19.71;56.69;96600.63;5031283;28;20588;-49
2022/06/09 10:20:01;;;;;;;2.28;0.85;;;;;;;19.54;54.50;96602.00;5045499;28;20219;-50
2022/06/09 10:22:32;;;;;;;3.35;1.10;;;;;;;19.31;55.83;96604.94;5055937;28;20549;-49
2022/06/09 10:25:01;;;;;;;4.05;1.00;;;;;;;19.14;56.17;96610.81;5046465;28;20282;-49
2022/06/09 10:27:35;;;;;;;4.78;1.35;;;;;;;18.97;56.57;96612.16;5053905;28;20230;-50
2022/06/09 10:30:06;;;;;;;1.20;1.10;;;;;;;18.95;60.17;96617.72;5047464;28;20283;-50
2022/06/09 10:32:40;;;;;;;4.43;1.40;;;;;;;18.92;60.08;96611.94;5044196;28;20298;-49
2022/06/09 10:35:12;;;;;;;3.97;1.25;;;;;;;18.81;59.54;96619.44;5044210;28;20597;-49
2022/06/09 10:37:44;;;;;;;4.03;1.30;;;;;;;18.78;59.37;96622.53;5052483;28;20203;-48
2022/06/09 10:40:16;;;;;;;3.42;1.05;;;;;;;18.79;57.31;96610.78;5069176;28;20207;-49
2022/06/09 10:42:49;;;;;;;3.97;1.45;;;;;;;18.83;58.73;96612.06;5062240;28;20236;-49
2022/06/09 10:45:22;;;;;;;4.32;1.98;;;;;;;18.99;59.56;96613.59;5057604;28;20243;-49
2022/06/09 10:56:28;;;;;;;4.97;1.30;;;;;;;18.65;61.33;96617.06;5043702;28;20249;-49
2022/06/09 10:58:58;;;;;;;1.58;0.93;;;;;;;18.48;63.06;96615.66;5044581;28;20236;-49
2022/06/09 11:01:28;;;;;;;2.08;1.05;;;;;;;18.35;63.24;96616.34;5041806;28;20210;-49
2022/06/09 11:04:01;;;;;;;1.95;1.17;;;;;;;18.08;67.21;96624.31;5057089;28;20290;-49
2022/06/09 11:06:57;;;;;;;2.90;1.25;;;;;;;18.16;66.25;96627.72;5043532;28;20280;-49
2022/06/09 11:09:30;;;;;;;3.35;1.20;;;;;;;18.16;65.70;96627.72;5034269;28;20640;-49
2022/06/09 11:12:06;;;;;;;2.13;1.20;;;;;;;18.09;66.21;96634.84;5049139;28;20302;-49
2022/06/09 11:14:44;;;;;;;2.88;1.17;;;;;;;18.12;67.16;96625.59;5053073;28;20199;-48
2022/06/09 11:17:24;;;;;;;4.07;1.30;;;;;;;18.58;62.60;96626.91;5058157;28;20699;-49
2022/06/09 11:20:02;;;;;;;2.47;0.90;;;;;;;18.92;63.39;96631.47;5045075;28;20282;-49
2022/06/09 11:22:34;;;;;;;2.35;1.00;;;;;;;19.27;61.55;96621.63;5044560;28;20703;-49
2022/06/09 11:25:11;;;;;;;2.03;0.85;;;;;;;19.92;56.99;96625.66;5074072;28;20188;-49
2022/06/09 11:27:42;;;;;;;3.42;1.15;;;;;;;19.73;55.02;96633.44;5066323;28;20198;-49
2022/06/09 11:30:21;;;;;;;3.03;1.33;;;;;;;19.45;52.75;96624.63;5092169;28;20183;-49
2022/06/09 11:32:56;;;;;;;4.05;2.42;;;;;;;19.21;55.45;96636.63;5066880;28;20211;-49
2022/06/09 11:35:37;;;;;;;3.92;1.20;;;;;;;19.12;57.13;96635.16;5079772;28;20167;-49
2022/06/09 11:38:13;;;;;;;1.10;0.98;;;;;;;18.85;57.83;96642.16;5071390;28;20195;-48
2022/06/09 11:40:44;;;;;;;2.70;1.40;;;;;;;18.67;59.99;96638.31;5078622;28;20250;-49
2022/06/09 11:43:19;;;;;;;2.45;1.05;;;;;;;18.60;59.15;96640.13;5092182;28;20197;-49
2022/06/09 11:45:49;;;;;;;2.50;1.17;;;;;;;18.44;63.56;96634.97;5073801;28;20192;-49
2022/06/09 11:48:22;;;;;;;2.90;0.95;;;;;;;18.42;61.49;96636.00;5085653;28;20179;-49
2022/06/09 11:50:53;;;;;;;1.40;0.82;;;;;;;18.37;62.20;96642.94;5067828;28;20282;-49
2022/06/09 11:53:22;;;;;;;1.98;0.98;;;;;;;18.48;61.13;96647.78;5052976;28;20254;-49
2022/06/09 11:56:00;;;;;;;1.67;0.93;;;;;;;18.51;60.92;96634.06;5044613;28;20683;-49
2022/06/09 11:58:45;;;;;;;1.67;0.90;;;;;;;18.50;59.17;96640.38;5041492;28;20195;-49
2022/06/09 12:01:24;;;;;;;1.20;0.50;;;;;;;18.46;59.97;96639.09;5042214;28;20280;-49
2022/06/09 12:04:24;;;;;;;2.35;2.13;;;;;;;18.65;61.63;96643.84;5052735;28;20198;-48
2022/06/09 12:07:22;;;;;;;1.60;0.80;;;;;;;18.69;57.03;96639.78;5022294;28;20199;-49
2022/06/09 12:09:57;;;;;;;0.80;0.50;;;;;;;18.91;56.14;96637.06;5040777;28;20609;-49